createdAt,value
2023-02-24T00:00:03.660Z,9.06
2023-02-24T00:01:03.670Z,9.12
2023-02-24T00:02:03.893Z,9.12
2023-02-24T00:03:03.908Z,9.06
2023-02-24T00:04:03.823Z,9.12
2023-02-24T00:05:03.915Z,9.06
2023-02-24T00:06:03.974Z,9.06
2023-02-24T00:07:04.151Z,9.06
2023-02-24T00:08:04.138Z,9.06
2023-02-24T00:09:04.133Z,9.06
2023-02-24T00:10:04.138Z,9.06
2023-02-24T00:11:04.135Z,9.06
2023-02-24T00:12:04.315Z,9.06
2023-02-24T00:13:04.293Z,9.06
2023-02-24T00:14:04.216Z,9.06
2023-02-24T00:15:04.292Z,9.06
2023-02-24T00:16:04.417Z,9.06
2023-02-24T00:17:03.582Z,9.06
2023-02-24T00:18:03.653Z,9.06
2023-02-24T00:19:03.674Z,9.06
2023-02-24T00:20:03.667Z,9.06
2023-02-24T00:21:03.654Z,9.06
2023-02-24T00:22:03.765Z,9.00
2023-02-24T00:23:03.832Z,9.00
2023-02-24T00:24:03.809Z,9.00
2023-02-24T00:25:03.950Z,9.00
2023-02-24T00:26:03.891Z,9.00
2023-02-24T00:27:03.984Z,9.00
2023-02-24T00:28:03.977Z,9.00
2023-02-24T00:29:04.047Z,9.00
2023-02-24T00:30:04.050Z,9.00
2023-02-24T00:31:04.162Z,9.00
2023-02-24T00:32:04.223Z,9.00
2023-02-24T00:33:04.281Z,9.00
2023-02-24T00:34:04.226Z,9.00
2023-02-24T00:35:04.300Z,9.00
2023-02-24T00:36:04.220Z,9.00
2023-02-24T00:37:04.382Z,9.00
2023-02-24T00:38:04.378Z,9.00
2023-02-24T00:39:04.405Z,9.00
2023-02-24T00:40:04.484Z,9.00
2023-02-24T00:41:03.532Z,9.00
2023-02-24T00:42:04.639Z,9.00
2023-02-24T00:43:03.505Z,9.00
2023-02-24T00:44:03.510Z,9.00
2023-02-24T00:45:03.502Z,9.00
2023-02-24T00:46:03.632Z,9.00
2023-02-24T00:47:03.589Z,9.00
2023-02-24T00:48:03.508Z,9.00
2023-02-24T00:49:03.510Z,9.00
2023-02-24T00:50:03.498Z,9.00
2023-02-24T00:51:03.515Z,9.00
2023-02-24T00:52:03.589Z,9.00
2023-02-24T00:53:03.681Z,9.00
2023-02-24T00:54:03.670Z,9.00
2023-02-24T00:55:03.671Z,9.00
2023-02-24T00:56:03.755Z,9.00
2023-02-24T00:57:03.705Z,9.00
2023-02-24T00:58:03.673Z,9.00
2023-02-24T00:59:03.589Z,9.00
2023-02-24T01:00:03.666Z,9.00
2023-02-24T01:01:03.668Z,9.00
2023-02-24T01:02:03.886Z,9.00
2023-02-24T01:03:03.663Z,9.00
2023-02-24T01:04:03.957Z,9.00
2023-02-24T01:05:03.913Z,9.00
2023-02-24T01:06:03.784Z,8.94
2023-02-24T01:07:03.825Z,8.94
2023-02-24T01:08:03.907Z,8.94
2023-02-24T01:09:03.922Z,8.94
2023-02-24T01:10:04.228Z,8.94
2023-02-24T01:11:04.171Z,8.94
2023-02-24T01:12:04.155Z,8.94
2023-02-24T01:13:04.152Z,8.94
2023-02-24T01:14:04.148Z,8.94
2023-02-24T01:15:04.227Z,8.94
2023-02-24T01:16:04.285Z,8.94
2023-02-24T01:17:04.305Z,8.94
2023-02-24T01:18:04.238Z,8.94
2023-02-24T01:19:04.229Z,8.94
2023-02-24T01:20:04.223Z,8.94
2023-02-24T01:21:04.307Z,8.94
2023-02-24T01:22:04.394Z,8.94
2023-02-24T01:23:04.300Z,8.94
2023-02-24T01:24:04.396Z,8.94
2023-02-24T01:25:03.511Z,8.94
2023-02-24T01:26:03.514Z,8.94
2023-02-24T01:27:03.600Z,8.94
2023-02-24T01:28:03.661Z,8.94
2023-02-24T01:29:03.659Z,8.94
2023-02-24T01:30:03.592Z,8.94
2023-02-24T01:31:03.711Z,8.94
2023-02-24T01:32:03.752Z,8.88
2023-02-24T01:33:03.721Z,8.88
2023-02-24T01:34:03.526Z,8.88
2023-02-24T01:35:03.507Z,8.88
2023-02-24T01:36:03.596Z,8.81
2023-02-24T01:37:03.590Z,8.81
2023-02-24T01:38:03.593Z,8.81
2023-02-24T01:39:03.676Z,8.81
2023-02-24T01:40:03.673Z,8.75
2023-02-24T01:41:03.674Z,8.75
2023-02-24T01:42:03.762Z,8.75
2023-02-24T01:43:03.912Z,8.75
2023-02-24T01:44:03.998Z,8.69
2023-02-24T01:45:03.994Z,8.69
2023-02-24T01:46:03.986Z,8.69
2023-02-24T01:47:04.160Z,8.62
2023-02-24T01:48:04.079Z,8.62
2023-02-24T01:49:04.164Z,8.62
2023-02-24T01:50:04.228Z,8.56
2023-02-24T01:51:04.390Z,8.56
2023-02-24T01:52:04.317Z,8.56
2023-02-24T01:53:04.485Z,8.56
2023-02-24T01:54:04.386Z,8.50
2023-02-24T01:55:04.475Z,8.50
2023-02-24T01:56:04.474Z,8.50
2023-02-24T01:57:03.513Z,8.50
2023-02-24T01:58:03.508Z,8.50
2023-02-24T01:59:04.468Z,8.44
2023-02-24T02:00:03.506Z,8.44
2023-02-24T02:01:03.510Z,8.44
2023-02-24T02:02:03.645Z,8.44
2023-02-24T02:03:03.718Z,8.44
2023-02-24T02:04:03.673Z,8.38
2023-02-24T02:05:03.691Z,8.38
2023-02-24T02:06:03.796Z,8.38
2023-02-24T02:07:03.923Z,8.38
2023-02-24T02:08:03.912Z,8.31
2023-02-24T02:09:04.089Z,8.31
2023-02-24T02:10:04.327Z,8.31
2023-02-24T02:11:04.086Z,8.31
2023-02-24T02:12:04.006Z,8.25
2023-02-24T02:13:04.080Z,8.25
2023-02-24T02:14:04.130Z,8.25
2023-02-24T02:15:04.068Z,8.25
2023-02-24T02:16:04.053Z,8.19
2023-02-24T02:17:04.238Z,8.19
2023-02-24T02:18:04.163Z,8.19
2023-02-24T02:19:04.144Z,8.19
2023-02-24T02:20:04.305Z,8.19
2023-02-24T02:21:04.325Z,8.12
2023-02-24T02:22:04.319Z,8.12
2023-02-24T02:23:04.237Z,8.12
2023-02-24T02:24:04.327Z,8.12
2023-02-24T02:25:04.403Z,8.06
2023-02-24T02:26:04.399Z,8.06
2023-02-24T02:27:04.483Z,8.06
2023-02-24T02:28:03.519Z,8.06
2023-02-24T02:29:03.588Z,8.06
2023-02-24T02:30:03.759Z,8.06
2023-02-24T02:31:03.821Z,8.00
2023-02-24T02:32:03.891Z,8.00
2023-02-24T02:33:03.711Z,8.00
2023-02-24T02:34:03.832Z,8.00
2023-02-24T02:35:03.855Z,8.00
2023-02-24T02:36:03.828Z,8.00
2023-02-24T02:37:03.833Z,8.00
2023-02-24T02:38:03.841Z,7.94
2023-02-24T02:39:03.759Z,7.94
2023-02-24T02:40:03.828Z,7.94
2023-02-24T02:41:03.913Z,7.94
2023-02-24T02:42:03.920Z,7.94
2023-02-24T02:43:03.919Z,7.94
2023-02-24T02:44:03.917Z,7.94
2023-02-24T02:45:03.990Z,7.94
2023-02-24T02:46:04.107Z,7.88
2023-02-24T02:47:03.989Z,7.88
2023-02-24T02:48:03.996Z,7.88
2023-02-24T02:49:04.150Z,7.88
2023-02-24T02:50:04.093Z,7.88
2023-02-24T02:51:04.149Z,7.81
2023-02-24T02:52:03.996Z,7.81
2023-02-24T02:53:03.921Z,7.81
2023-02-24T02:54:03.901Z,7.81
2023-02-24T02:55:04.072Z,7.81
2023-02-24T02:56:04.064Z,7.81
2023-02-24T02:57:04.074Z,7.81
2023-02-24T02:58:03.981Z,7.75
2023-02-24T02:59:03.981Z,7.75
2023-02-24T03:00:03.992Z,7.75
2023-02-24T03:01:04.111Z,7.75
2023-02-24T03:02:04.062Z,7.75
2023-02-24T03:03:04.102Z,7.69
2023-02-24T03:04:04.154Z,7.69
2023-02-24T03:05:04.364Z,7.69
2023-02-24T03:06:04.247Z,7.69
2023-02-24T03:07:04.254Z,7.69
2023-02-24T03:08:04.226Z,7.69
2023-02-24T03:09:04.228Z,7.69
2023-02-24T03:10:04.237Z,7.69
2023-02-24T03:11:04.297Z,7.69
2023-02-24T03:12:04.314Z,7.69
2023-02-24T03:13:04.225Z,7.69
2023-02-24T03:14:04.236Z,7.69
2023-02-24T03:15:04.225Z,7.69
2023-02-24T03:16:04.233Z,7.69
2023-02-24T03:17:04.225Z,7.69
2023-02-24T03:18:04.326Z,7.62
2023-02-24T03:19:04.328Z,7.62
2023-02-24T03:20:04.248Z,7.62
2023-02-24T03:21:04.134Z,7.62
2023-02-24T03:22:04.152Z,7.62
2023-02-24T03:23:04.241Z,7.62
2023-02-24T03:24:04.147Z,7.62
2023-02-24T03:25:04.235Z,7.62
2023-02-24T03:26:04.152Z,7.62
2023-02-24T03:27:04.311Z,7.62
2023-02-24T03:28:04.312Z,7.62
2023-02-24T03:29:04.221Z,7.62
2023-02-24T03:30:04.310Z,7.62
2023-02-24T03:31:04.373Z,7.62
2023-02-24T03:32:04.449Z,7.62
2023-02-24T03:33:04.310Z,7.62
2023-02-24T03:34:04.326Z,7.62
2023-02-24T03:35:04.314Z,7.62
2023-02-24T03:36:04.393Z,7.62
2023-02-24T03:37:04.318Z,7.62
2023-02-24T03:38:04.227Z,7.56
2023-02-24T03:39:04.225Z,7.62
2023-02-24T03:40:04.144Z,7.62
2023-02-24T03:41:04.224Z,7.62
2023-02-24T03:42:04.243Z,7.62
2023-02-24T03:43:04.305Z,7.56
2023-02-24T03:44:04.474Z,7.56
2023-02-24T03:45:04.319Z,7.56
2023-02-24T03:46:04.375Z,7.56
2023-02-24T03:47:04.403Z,7.56
2023-02-24T03:48:04.381Z,7.56
2023-02-24T03:49:04.311Z,7.56
2023-02-24T03:50:04.228Z,7.56
2023-02-24T03:51:04.218Z,7.56
2023-02-24T03:52:04.254Z,7.56
2023-02-24T03:53:04.233Z,7.56
2023-02-24T03:54:04.232Z,7.56
2023-02-24T03:55:04.151Z,7.56
2023-02-24T03:56:04.062Z,7.56
2023-02-24T03:57:04.143Z,7.56
2023-02-24T03:58:04.073Z,7.56
2023-02-24T03:59:04.165Z,7.56
2023-02-24T04:00:04.307Z,7.56
2023-02-24T04:01:04.227Z,7.56
2023-02-24T04:02:04.193Z,7.56
2023-02-24T04:03:04.151Z,7.56
2023-02-24T04:04:04.311Z,7.56
2023-02-24T04:05:04.299Z,7.56
2023-02-24T04:06:04.221Z,7.56
2023-02-24T04:07:04.302Z,7.56
2023-02-24T04:08:04.372Z,7.56
2023-02-24T04:09:05.221Z,7.56
2023-02-24T04:10:04.332Z,7.56
2023-02-24T04:11:04.226Z,7.56
2023-02-24T04:12:04.247Z,7.50
2023-02-24T04:13:04.253Z,7.56
2023-02-24T04:14:04.265Z,7.56
2023-02-24T04:15:04.226Z,7.50
2023-02-24T04:16:04.440Z,7.50
2023-02-24T04:17:04.389Z,7.50
2023-02-24T04:18:04.388Z,7.50
2023-02-24T04:19:04.389Z,7.50
2023-02-24T04:20:04.461Z,7.50
2023-02-24T04:21:04.433Z,7.50
2023-02-24T04:22:04.396Z,7.50
2023-02-24T04:23:04.392Z,7.50
2023-02-24T04:24:04.330Z,7.50
2023-02-24T04:25:04.309Z,7.50
2023-02-24T04:26:04.311Z,7.50
2023-02-24T04:27:04.399Z,7.50
2023-02-24T04:28:04.315Z,7.50
2023-02-24T04:29:04.400Z,7.50
2023-02-24T04:30:04.314Z,7.50
2023-02-24T04:31:04.500Z,7.50
2023-02-24T04:32:04.492Z,7.50
2023-02-24T04:33:04.483Z,7.50
2023-02-24T04:34:04.392Z,7.44
2023-02-24T04:35:04.324Z,7.50
2023-02-24T04:36:04.379Z,7.50
2023-02-24T04:37:04.470Z,7.50
2023-02-24T04:38:03.511Z,7.44
2023-02-24T04:39:03.526Z,7.50
2023-02-24T04:40:04.484Z,7.50
2023-02-24T04:41:04.471Z,7.44
2023-02-24T04:42:04.309Z,7.44
2023-02-24T04:43:04.314Z,7.44
2023-02-24T04:44:04.344Z,7.44
2023-02-24T04:45:04.398Z,7.44
2023-02-24T04:46:04.408Z,7.44
2023-02-24T04:47:03.521Z,7.44
2023-02-24T04:48:03.686Z,7.44
2023-02-24T04:49:03.695Z,7.44
2023-02-24T04:50:03.677Z,7.44
2023-02-24T04:51:03.585Z,7.44
2023-02-24T04:52:03.664Z,7.44
2023-02-24T04:53:03.767Z,7.44
2023-02-24T04:54:03.763Z,7.44
2023-02-24T04:55:03.752Z,7.44
2023-02-24T04:56:03.753Z,7.44
2023-02-24T04:57:03.661Z,7.44
2023-02-24T04:58:03.742Z,7.44
2023-02-24T04:59:03.770Z,7.44
2023-02-24T05:00:03.840Z,7.38
2023-02-24T05:01:03.817Z,7.38
2023-02-24T05:02:03.824Z,7.38
2023-02-24T05:03:03.909Z,7.38
2023-02-24T05:04:03.861Z,7.38
2023-02-24T05:05:03.830Z,7.38
2023-02-24T05:06:03.923Z,7.38
2023-02-24T05:07:04.066Z,7.38
2023-02-24T05:08:04.158Z,7.38
2023-02-24T05:09:04.156Z,7.38
2023-02-24T05:10:04.082Z,7.38
2023-02-24T05:11:04.196Z,7.38
2023-02-24T05:12:04.075Z,7.38
2023-02-24T05:13:04.064Z,7.38
2023-02-24T05:14:04.149Z,7.38
2023-02-24T05:15:04.173Z,7.38
2023-02-24T05:16:04.282Z,7.38
2023-02-24T05:17:04.234Z,7.38
2023-02-24T05:18:04.141Z,7.31
2023-02-24T05:19:04.237Z,7.31
2023-02-24T05:20:04.237Z,7.31
2023-02-24T05:21:04.244Z,7.31
2023-02-24T05:22:04.232Z,7.31
2023-02-24T05:23:04.233Z,7.31
2023-02-24T05:24:04.239Z,7.31
2023-02-24T05:25:04.480Z,7.31
2023-02-24T05:26:03.607Z,7.31
2023-02-24T05:27:03.536Z,7.31
2023-02-24T05:28:03.511Z,7.31
2023-02-24T05:29:04.474Z,7.31
2023-02-24T05:30:03.610Z,7.31
2023-02-24T05:31:03.659Z,7.31
2023-02-24T05:32:03.890Z,7.31
2023-02-24T05:33:03.759Z,7.25
2023-02-24T05:34:03.776Z,7.31
2023-02-24T05:35:03.751Z,7.25
2023-02-24T05:36:05.295Z,7.25
2023-02-24T05:37:03.823Z,7.25
2023-02-24T05:38:03.843Z,7.25
2023-02-24T05:39:03.839Z,7.25
2023-02-24T05:40:03.916Z,7.25
2023-02-24T05:41:04.818Z,7.25
2023-02-24T05:42:03.992Z,7.25
2023-02-24T05:43:04.097Z,7.25
2023-02-24T05:44:04.062Z,7.25
2023-02-24T05:45:03.985Z,7.25
2023-02-24T05:46:04.012Z,7.25
2023-02-24T05:47:04.219Z,7.25
2023-02-24T05:48:04.062Z,7.19
2023-02-24T05:49:04.075Z,7.25
2023-02-24T05:50:04.089Z,7.19
2023-02-24T05:51:05.192Z,7.25
2023-02-24T05:52:04.063Z,7.25
2023-02-24T05:53:04.065Z,7.25
2023-02-24T05:54:04.137Z,7.25
2023-02-24T05:55:04.148Z,7.19
2023-02-24T05:56:04.226Z,7.19
2023-02-24T05:57:04.228Z,7.19
2023-02-24T05:58:04.294Z,7.19
2023-02-24T05:59:04.398Z,7.19
2023-02-24T06:00:04.475Z,7.19
2023-02-24T06:01:04.384Z,7.19
2023-02-24T06:02:04.400Z,7.19
2023-02-24T06:03:04.497Z,7.19
2023-02-24T06:04:04.385Z,7.19
2023-02-24T06:05:04.473Z,7.19
2023-02-24T06:06:04.376Z,7.19
2023-02-24T06:07:03.518Z,7.19
2023-02-24T06:08:04.378Z,7.19
2023-02-24T06:09:04.384Z,7.19
2023-02-24T06:10:04.390Z,7.19
2023-02-24T06:11:04.382Z,7.19
2023-02-24T06:12:03.475Z,7.19
2023-02-24T06:13:03.530Z,7.19
2023-02-24T06:14:03.573Z,7.19
2023-02-24T06:15:03.578Z,7.19
2023-02-24T06:16:03.612Z,7.19
2023-02-24T06:17:03.678Z,7.19
2023-02-24T06:18:03.537Z,7.19
2023-02-24T06:19:03.498Z,7.19
2023-02-24T06:20:03.677Z,7.19
2023-02-24T06:21:03.696Z,7.19
2023-02-24T06:22:03.579Z,7.19
2023-02-24T06:23:03.674Z,7.19
2023-02-24T06:24:03.585Z,7.19
2023-02-24T06:25:03.532Z,7.19
2023-02-24T06:26:03.589Z,7.19
2023-02-24T06:27:03.582Z,7.19
2023-02-24T06:28:03.668Z,7.19
2023-02-24T06:29:03.583Z,7.19
2023-02-24T06:30:03.604Z,7.19
2023-02-24T06:31:03.687Z,7.19
2023-02-24T06:32:03.720Z,7.19
2023-02-24T06:33:03.599Z,7.19
2023-02-24T06:34:03.660Z,7.19
2023-02-24T06:35:03.621Z,7.19
2023-02-24T06:36:03.583Z,7.19
2023-02-24T06:37:03.586Z,7.19
2023-02-24T06:38:03.507Z,7.19
2023-02-24T06:39:04.468Z,7.19
2023-02-24T06:40:03.505Z,7.12
2023-02-24T06:41:04.469Z,7.19
2023-02-24T06:42:04.403Z,7.19
2023-02-24T06:43:04.480Z,7.19
2023-02-24T06:44:04.390Z,7.19
2023-02-24T06:45:03.536Z,7.19
2023-02-24T06:46:03.581Z,7.31
2023-02-24T06:47:03.598Z,7.31
2023-02-24T06:48:03.601Z,7.31
2023-02-24T06:49:04.579Z,7.31
2023-02-24T06:50:03.675Z,7.31
2023-02-24T06:51:03.591Z,7.31
2023-02-24T06:52:03.688Z,7.31
2023-02-24T06:53:03.593Z,7.31
2023-02-24T06:54:03.595Z,7.31
2023-02-24T06:55:03.512Z,7.31
2023-02-24T06:56:03.594Z,7.31
2023-02-24T06:57:03.725Z,7.31
2023-02-24T06:58:03.757Z,7.31
2023-02-24T06:59:03.841Z,7.25
2023-02-24T07:00:03.816Z,7.25
2023-02-24T07:01:03.806Z,7.25
2023-02-24T07:02:03.861Z,7.25
2023-02-24T07:03:03.989Z,7.25
2023-02-24T07:04:04.097Z,7.25
2023-02-24T07:05:04.070Z,7.50
2023-02-24T07:06:04.167Z,7.44
2023-02-24T07:07:05.058Z,7.44
2023-02-24T07:08:04.147Z,7.75
2023-02-24T07:09:04.237Z,7.81
2023-02-24T07:10:04.145Z,7.75
2023-02-24T07:11:04.386Z,7.69
2023-02-24T07:12:04.242Z,7.62
2023-02-24T07:13:04.232Z,7.62
2023-02-24T07:14:04.409Z,7.56
2023-02-24T07:15:04.312Z,7.50
2023-02-24T07:16:04.310Z,7.50
2023-02-24T07:17:04.481Z,7.50
2023-02-24T07:18:03.772Z,7.50
2023-02-24T07:19:03.846Z,7.44
2023-02-24T07:20:03.999Z,7.62
2023-02-24T07:21:04.087Z,7.69
2023-02-24T07:22:04.089Z,7.62
2023-02-24T07:23:03.997Z,7.69
2023-02-24T07:24:03.923Z,7.69
2023-02-24T07:25:03.992Z,7.62
2023-02-24T07:26:03.919Z,7.62
2023-02-24T07:27:04.011Z,7.69
2023-02-24T07:28:04.068Z,7.88
2023-02-24T07:29:04.098Z,7.88
2023-02-24T07:30:04.081Z,7.81
2023-02-24T07:31:04.200Z,7.75
2023-02-24T07:32:04.145Z,7.75
2023-02-24T07:33:04.064Z,7.69
2023-02-24T07:34:03.991Z,7.69
2023-02-24T07:35:04.073Z,7.69
2023-02-24T07:36:04.087Z,7.62
2023-02-24T07:37:04.088Z,7.62
2023-02-24T07:38:04.069Z,7.62
2023-02-24T07:39:04.064Z,7.56
2023-02-24T07:40:03.905Z,7.56
2023-02-24T07:41:03.833Z,7.69
2023-02-24T07:42:03.992Z,7.69
2023-02-24T07:43:04.074Z,7.69
2023-02-24T07:44:04.100Z,7.88
2023-02-24T07:45:04.303Z,7.81
2023-02-24T07:46:04.364Z,7.81
2023-02-24T07:47:04.393Z,7.81
2023-02-24T07:48:04.403Z,7.75
2023-02-24T07:49:04.308Z,7.75
2023-02-24T07:50:04.402Z,7.75
2023-02-24T07:51:04.397Z,7.69
2023-02-24T07:52:04.377Z,7.69
2023-02-24T07:53:04.378Z,7.69
2023-02-24T07:54:03.594Z,7.62
2023-02-24T07:55:04.391Z,7.69
2023-02-24T07:56:03.576Z,7.69
2023-02-24T07:57:03.590Z,7.62
2023-02-24T07:58:03.672Z,7.62
2023-02-24T07:59:03.581Z,7.62
2023-02-24T08:00:03.659Z,7.62
2023-02-24T08:01:03.668Z,7.62
2023-02-24T08:02:03.707Z,7.56
2023-02-24T08:03:03.659Z,7.56
2023-02-24T08:04:03.739Z,7.56
2023-02-24T08:05:03.829Z,7.56
2023-02-24T08:06:03.833Z,7.56
2023-02-24T08:07:03.865Z,7.56
2023-02-24T08:08:03.845Z,7.50
2023-02-24T08:09:03.849Z,7.50
2023-02-24T08:10:03.850Z,7.50
2023-02-24T08:11:03.835Z,7.56
2023-02-24T08:12:03.822Z,7.62
2023-02-24T08:13:03.909Z,7.56
2023-02-24T08:14:03.835Z,7.56
2023-02-24T08:15:03.817Z,7.50
2023-02-24T08:16:03.730Z,7.50
2023-02-24T08:17:03.832Z,7.44
2023-02-24T08:18:03.747Z,7.44
2023-02-24T08:19:03.835Z,7.38
2023-02-24T08:20:03.823Z,7.38
2023-02-24T08:21:03.825Z,7.31
2023-02-24T08:22:03.908Z,7.31
2023-02-24T08:23:03.914Z,7.25
2023-02-24T08:24:03.906Z,7.25
2023-02-24T08:25:03.918Z,7.25
2023-02-24T08:26:03.800Z,7.25
2023-02-24T08:27:03.679Z,7.19
2023-02-24T08:28:08.754Z,7.19
2023-02-24T08:29:03.745Z,7.12
2023-02-24T08:30:03.699Z,7.12
2023-02-24T08:31:03.771Z,7.00
2023-02-24T08:32:03.682Z,7.00
2023-02-24T08:33:03.584Z,6.94
2023-02-24T08:34:03.676Z,6.88
2023-02-24T08:35:03.781Z,6.88
2023-02-24T08:36:03.710Z,6.88
2023-02-24T08:37:03.585Z,6.81
2023-02-24T08:38:03.674Z,6.81
2023-02-24T08:39:03.587Z,6.75
2023-02-24T08:40:03.671Z,6.75
2023-02-24T08:41:03.683Z,6.75
2023-02-24T08:42:03.619Z,6.75
2023-02-24T08:43:03.606Z,6.69
2023-02-24T08:44:03.514Z,6.69
2023-02-24T08:45:03.594Z,6.69
2023-02-24T08:46:03.515Z,6.62
2023-02-24T08:47:03.735Z,6.62
2023-02-24T08:48:03.604Z,6.62
2023-02-24T08:49:03.518Z,6.62
2023-02-24T08:50:03.587Z,6.62
2023-02-24T08:51:03.520Z,6.62
2023-02-24T08:52:03.504Z,6.62
2023-02-24T08:53:03.675Z,6.62
2023-02-24T08:54:03.612Z,6.62
2023-02-24T08:55:03.596Z,6.56
2023-02-24T08:56:03.589Z,6.56
2023-02-24T08:57:03.630Z,6.56
2023-02-24T08:58:03.607Z,6.56
2023-02-24T08:59:03.592Z,6.56
2023-02-24T09:00:03.506Z,6.56
2023-02-24T09:01:03.735Z,6.56
2023-02-24T09:02:04.954Z,6.56
2023-02-24T09:03:03.599Z,6.56
2023-02-24T09:04:03.533Z,6.56
2023-02-24T09:05:03.679Z,6.56
2023-02-24T09:06:04.513Z,6.56
2023-02-24T09:07:11.445Z,6.56
2023-02-24T09:08:04.402Z,6.56
2023-02-24T09:09:04.490Z,6.56
2023-02-24T09:10:04.466Z,6.56
2023-02-24T09:11:04.558Z,6.56
2023-02-24T09:12:03.520Z,6.56
2023-02-24T09:13:04.446Z,6.56
2023-02-24T09:14:04.402Z,6.56
2023-02-24T09:15:04.412Z,6.56
2023-02-24T09:16:04.435Z,6.56
2023-02-24T09:17:04.432Z,6.56
2023-02-24T09:18:04.320Z,6.56
2023-02-24T09:19:04.232Z,6.56
2023-02-24T09:20:04.310Z,6.56
2023-02-24T09:21:04.393Z,6.56
2023-02-24T09:22:10.300Z,6.56
2023-02-24T09:23:04.309Z,6.56
2023-02-24T09:24:04.470Z,6.62
2023-02-24T09:25:04.479Z,6.62
2023-02-24T09:26:03.553Z,6.62
2023-02-24T09:27:03.545Z,6.62
2023-02-24T09:28:03.600Z,6.62
2023-02-24T09:29:03.517Z,6.62
2023-02-24T09:30:04.466Z,6.62
2023-02-24T09:31:03.467Z,6.62
2023-02-24T09:32:04.677Z,6.62
2023-02-24T09:33:04.527Z,6.62
2023-02-24T09:34:04.398Z,6.69
2023-02-24T09:35:04.558Z,6.69
2023-02-24T09:36:04.468Z,6.69
2023-02-24T09:37:04.393Z,6.69
2023-02-24T09:38:04.394Z,6.69
2023-02-24T09:39:04.470Z,6.75
2023-02-24T09:40:04.392Z,6.75
2023-02-24T09:41:13.833Z,6.75
2023-02-24T09:42:04.404Z,6.75
2023-02-24T09:43:04.405Z,6.75
2023-02-24T09:44:04.466Z,6.75
2023-02-24T09:45:04.406Z,6.75
2023-02-24T09:46:04.560Z,6.75
2023-02-24T09:47:03.507Z,6.81
2023-02-24T09:48:03.508Z,6.81
2023-02-24T09:49:03.595Z,6.81
2023-02-24T09:50:03.535Z,6.81
2023-02-24T09:51:04.980Z,6.81
2023-02-24T09:52:03.510Z,6.81
2023-02-24T09:53:11.019Z,6.81
2023-02-24T09:54:04.412Z,6.81
2023-02-24T09:55:03.677Z,6.81
2023-02-24T09:56:03.613Z,6.81
2023-02-24T09:57:03.540Z,6.81
2023-02-24T09:58:04.485Z,6.81
2023-02-24T09:59:03.505Z,6.88
2023-02-24T10:00:03.511Z,6.81
2023-02-24T10:01:03.568Z,6.88
2023-02-24T10:02:03.658Z,6.88
2023-02-24T10:03:03.584Z,6.81
2023-02-24T10:04:08.741Z,6.88
2023-02-24T10:05:03.592Z,6.88
2023-02-24T10:06:03.688Z,6.88
2023-02-24T10:07:03.695Z,6.88
2023-02-24T10:08:03.677Z,6.88
2023-02-24T10:09:03.696Z,6.94
2023-02-24T10:10:03.750Z,6.94
2023-02-24T10:11:03.688Z,6.94
2023-02-24T10:12:03.594Z,6.94
2023-02-24T10:13:03.752Z,6.94
2023-02-24T10:14:03.793Z,7.00
2023-02-24T10:15:03.759Z,7.00
2023-02-24T10:16:07.203Z,7.06
2023-02-24T10:17:03.916Z,7.06
2023-02-24T10:18:03.992Z,7.06
2023-02-24T10:19:04.002Z,7.06
2023-02-24T10:20:04.065Z,7.06
2023-02-24T10:21:04.014Z,7.06
2023-02-24T10:22:04.026Z,7.12
2023-02-24T10:23:04.073Z,7.12
2023-02-24T10:24:03.991Z,7.12
2023-02-24T10:25:03.995Z,7.12
2023-02-24T10:26:07.047Z,7.12
2023-02-24T10:27:08.276Z,7.12
2023-02-24T10:28:04.307Z,7.12
2023-02-24T10:29:04.415Z,7.19
2023-02-24T10:30:04.397Z,7.19
2023-02-24T10:31:04.451Z,7.19
2023-02-24T10:32:04.697Z,7.19
2023-02-24T10:33:03.572Z,7.19
2023-02-24T10:34:03.600Z,7.19
2023-02-24T10:35:03.681Z,7.19
2023-02-24T10:36:04.568Z,7.25
2023-02-24T10:37:03.601Z,7.25
2023-02-24T10:38:03.749Z,7.25
2023-02-24T10:39:03.606Z,7.25
2023-02-24T10:40:03.593Z,7.25
2023-02-24T10:41:03.670Z,7.25
2023-02-24T10:42:03.844Z,7.25
2023-02-24T10:43:03.682Z,7.25
2023-02-24T10:44:03.806Z,7.25
2023-02-24T10:45:09.657Z,7.25
2023-02-24T10:46:03.885Z,7.25
2023-02-24T10:47:03.880Z,7.25
2023-02-24T10:48:03.995Z,7.25
2023-02-24T10:49:03.930Z,7.31
2023-02-24T10:50:03.986Z,7.31
2023-02-24T10:51:04.086Z,7.31
2023-02-24T10:52:04.089Z,7.31
2023-02-24T10:53:04.096Z,7.38
2023-02-24T10:54:04.080Z,7.38
2023-02-24T10:55:04.161Z,7.44
2023-02-24T10:56:04.077Z,7.44
2023-02-24T10:57:04.151Z,7.50
2023-02-24T10:58:04.318Z,7.50
2023-02-24T10:59:04.275Z,7.56
2023-02-24T11:00:04.316Z,7.62
2023-02-24T11:01:04.362Z,7.69
2023-02-24T11:02:04.373Z,7.75
2023-02-24T11:03:04.562Z,7.75
2023-02-24T11:04:04.414Z,7.81
2023-02-24T11:05:04.612Z,7.88
2023-02-24T11:06:04.426Z,7.94
2023-02-24T11:07:04.394Z,8.00
2023-02-24T11:08:04.403Z,8.00
2023-02-24T11:09:04.394Z,8.06
2023-02-24T11:10:04.405Z,8.06
2023-02-24T11:11:04.392Z,8.12
2023-02-24T11:12:04.315Z,8.12
2023-02-24T11:13:09.812Z,8.19
2023-02-24T11:14:04.391Z,8.19
2023-02-24T11:15:03.527Z,8.25
2023-02-24T11:16:03.480Z,8.25
2023-02-24T11:17:03.678Z,8.31
2023-02-24T11:18:03.787Z,8.31
2023-02-24T11:19:03.840Z,8.38
2023-02-24T11:20:03.918Z,8.38
2023-02-24T11:21:03.942Z,8.44
2023-02-24T11:22:03.931Z,8.44
2023-02-24T11:23:03.832Z,8.50
2023-02-24T11:24:03.904Z,8.56
2023-02-24T11:25:04.067Z,8.56
2023-02-24T11:26:03.993Z,8.62
2023-02-24T11:27:04.460Z,8.69
2023-02-24T11:28:03.996Z,8.69
2023-02-24T11:29:03.953Z,8.81
2023-02-24T11:30:03.997Z,8.81
2023-02-24T11:31:04.061Z,8.88
2023-02-24T11:32:04.127Z,8.94
2023-02-24T11:33:03.990Z,8.94
2023-02-24T11:34:03.824Z,9.00
2023-02-24T11:35:03.912Z,9.00
2023-02-24T11:36:03.829Z,9.00
2023-02-24T11:37:03.830Z,9.06
2023-02-24T11:38:03.826Z,9.06
2023-02-24T11:39:17.069Z,9.12
2023-02-24T11:40:03.922Z,9.12
2023-02-24T11:41:03.830Z,9.12
2023-02-24T11:42:03.898Z,9.19
2023-02-24T11:43:03.901Z,9.19
2023-02-24T11:44:03.832Z,9.25
2023-02-24T11:45:04.027Z,9.31
2023-02-24T11:46:04.028Z,9.31
2023-02-24T11:47:03.913Z,9.38
2023-02-24T11:48:03.997Z,9.38
2023-02-24T11:49:03.986Z,9.44
2023-02-24T11:50:05.201Z,9.44
2023-02-24T11:51:03.926Z,9.50
2023-02-24T11:52:04.045Z,9.50
2023-02-24T11:53:03.999Z,9.50
2023-02-24T11:54:03.919Z,9.56
2023-02-24T11:55:04.000Z,9.56
2023-02-24T11:56:04.086Z,9.56
2023-02-24T11:57:04.075Z,9.56
2023-02-24T11:58:04.154Z,9.62
2023-02-24T11:59:04.153Z,9.69
2023-02-24T12:00:04.243Z,9.69
2023-02-24T12:01:04.249Z,9.69
2023-02-24T12:02:04.390Z,9.69
2023-02-24T12:03:04.479Z,9.75
2023-02-24T12:04:04.482Z,9.75
2023-02-24T12:05:03.523Z,9.75
2023-02-24T12:06:04.591Z,9.81
2023-02-24T12:07:04.687Z,9.81
2023-02-24T12:08:03.589Z,9.75
2023-02-24T12:09:03.584Z,9.81
2023-02-24T12:10:15.883Z,9.81
2023-02-24T12:11:03.680Z,9.81
2023-02-24T12:12:03.669Z,9.81
2023-02-24T12:13:03.677Z,9.88
2023-02-24T12:14:03.753Z,9.88
2023-02-24T12:15:03.687Z,9.88
2023-02-24T12:16:03.793Z,9.81
2023-02-24T12:17:03.688Z,9.81
2023-02-24T12:18:03.676Z,9.81
2023-02-24T12:19:03.682Z,9.81
2023-02-24T12:20:04.724Z,9.81
2023-02-24T12:21:03.749Z,9.81
2023-02-24T12:22:03.673Z,9.81
2023-02-24T12:23:03.587Z,9.81
2023-02-24T12:24:03.681Z,9.75
2023-02-24T12:25:03.700Z,9.75
2023-02-24T12:26:03.758Z,9.75
2023-02-24T12:27:03.670Z,9.75
2023-02-24T12:28:03.665Z,9.69
2023-02-24T12:29:03.758Z,9.69
2023-02-24T12:30:03.831Z,9.69
2023-02-24T12:31:03.801Z,9.62
2023-02-24T12:32:03.923Z,9.62
2023-02-24T12:33:03.805Z,9.62
2023-02-24T12:34:03.753Z,9.62
2023-02-24T12:35:03.829Z,9.62
2023-02-24T12:36:03.845Z,9.56
2023-02-24T12:37:03.912Z,9.56
2023-02-24T12:38:03.839Z,9.56
2023-02-24T12:39:03.824Z,9.50
2023-02-24T12:40:03.752Z,9.50
2023-02-24T12:41:03.772Z,9.50
2023-02-24T12:42:03.831Z,9.44
2023-02-24T12:43:03.820Z,9.44
2023-02-24T12:44:03.828Z,9.44
2023-02-24T12:45:03.843Z,9.38
2023-02-24T12:46:03.962Z,9.38
2023-02-24T12:47:03.962Z,9.38
2023-02-24T12:48:03.982Z,9.38
2023-02-24T12:49:03.992Z,9.38
2023-02-24T12:50:03.994Z,9.31
2023-02-24T12:51:03.897Z,9.31
2023-02-24T12:52:03.837Z,9.31
2023-02-24T12:53:03.824Z,9.25
2023-02-24T12:54:03.768Z,9.25
2023-02-24T12:55:03.755Z,9.25
2023-02-24T12:56:03.749Z,9.19
2023-02-24T12:57:03.738Z,9.25
2023-02-24T12:58:03.690Z,9.19
2023-02-24T12:59:03.775Z,9.19
2023-02-24T13:00:03.750Z,9.19
2023-02-24T13:01:03.748Z,9.19
2023-02-24T13:02:03.735Z,9.19
2023-02-24T13:03:03.738Z,9.19
2023-02-24T13:04:03.830Z,9.19
2023-02-24T13:05:03.734Z,9.19
2023-02-24T13:06:03.980Z,9.12
2023-02-24T13:07:03.908Z,9.12
2023-02-24T13:08:04.081Z,9.12
2023-02-24T13:09:03.990Z,9.12
2023-02-24T13:10:04.063Z,9.06
2023-02-24T13:11:04.004Z,9.06
2023-02-24T13:12:04.821Z,9.06
2023-02-24T13:13:04.170Z,9.06
2023-02-24T13:14:04.141Z,9.06
2023-02-24T13:15:04.059Z,9.06
2023-02-24T13:16:04.144Z,9.06
2023-02-24T13:17:04.230Z,9.06
2023-02-24T13:18:04.308Z,9.06